首页
METAR-TAF:

METAR-TAF

机场 :

亚历山大城, 阿拉巴马州, 美国

纬度: 32-54-53N, 经度: 085-57-46W, 海拔: 209米

当前天气观测

该预报发布于28分钟前的23:55 UTC
风速5节,风向
温度 21°C
湿度 94%
气压 1015 hPa
能見度: 16.1公里
散云层高于1300英尺
多云层高于4300英尺
阴天层高于5500英尺

METAR: KALX 262355Z AUTO 09005KT 10SM SCT013 BKN043 OVC055 21/20 A2997 RMK AO2 LTG DSNT S AND SW 60020 T02140204 10218 20205

时间: 19:23 (00:23 UTC)


TAF: 丢失

超过4000个机场的气象观测和天气预报(METAR&TAF报告)。

可查询的气象台以黄色和红色小点在地图上表示。

将鼠标移到小点上方,可查看气象台名称。

然后点击查看天气观测和预报。

如需切换地图:点击带黑十字的绿色按钮放大地图;点击带横线的绿色按钮缩小地图;或者点击绿色箭头查看邻近地区的地图。


METAR-TAF: